sensor_id;sensor_type;location;lat;lon;timestamp;P1;durP1;ratioP1;P2;durP2;ratioP2
56239;SDS011;42154;51.992;5.896;2023-04-16T00:00:47;18.00;;;7.60;;
56239;SDS011;42154;51.992;5.896;2023-04-16T00:03:13;17.70;;;7.93;;
56239;SDS011;42154;51.992;5.896;2023-04-16T00:05:39;16.48;;;7.45;;
56239;SDS011;42154;51.992;5.896;2023-04-16T00:08:06;21.25;;;8.48;;
56239;SDS011;42154;51.992;5.896;2023-04-16T00:10:33;16.08;;;7.82;;
56239;SDS011;42154;51.992;5.896;2023-04-16T00:12:59;18.15;;;7.70;;
56239;SDS011;42154;51.992;5.896;2023-04-16T00:15:25;25.27;;;7.50;;
56239;SDS011;42154;51.992;5.896;2023-04-16T00:17:51;22.40;;;8.55;;
56239;SDS011;42154;51.992;5.896;2023-04-16T00:20:16;15.75;;;7.38;;
56239;SDS011;42154;51.992;5.896;2023-04-16T00:22:44;19.70;;;9.45;;
56239;SDS011;42154;51.992;5.896;2023-04-16T00:25:10;21.08;;;7.72;;
56239;SDS011;42154;51.992;5.896;2023-04-16T00:27:35;18.17;;;8.30;;
56239;SDS011;42154;51.992;5.896;2023-04-16T00:30:01;21.52;;;9.45;;
56239;SDS011;42154;51.992;5.896;2023-04-16T00:32:27;21.23;;;8.73;;
56239;SDS011;42154;51.992;5.896;2023-04-16T00:34:54;22.65;;;9.27;;
56239;SDS011;42154;51.992;5.896;2023-04-16T00:37:20;23.30;;;8.95;;
56239;SDS011;42154;51.992;5.896;2023-04-16T00:39:45;26.17;;;11.63;;
56239;SDS011;42154;51.992;5.896;2023-04-16T00:42:11;19.10;;;9.35;;
56239;SDS011;42154;51.992;5.896;2023-04-16T00:44:37;18.50;;;8.68;;
56239;SDS011;42154;51.992;5.896;2023-04-16T00:47:02;30.00;;;12.65;;
56239;SDS011;42154;51.992;5.896;2023-04-16T00:49:28;22.98;;;9.35;;
56239;SDS011;42154;51.992;5.896;2023-04-16T00:51:55;18.95;;;9.50;;
56239;SDS011;42154;51.992;5.896;2023-04-16T00:54:21;21.00;;;9.55;;
56239;SDS011;42154;51.992;5.896;2023-04-16T00:56:48;27.90;;;12.25;;
56239;SDS011;42154;51.992;5.896;2023-04-16T00:59:15;29.13;;;12.57;;
56239;SDS011;42154;51.992;5.896;2023-04-16T01:01:41;24.33;;;10.45;;
56239;SDS011;42154;51.992;5.896;2023-04-16T01:04:07;28.05;;;11.25;;
56239;SDS011;42154;51.992;5.896;2023-04-16T01:06:33;32.65;;;12.90;;
56239;SDS011;42154;51.992;5.896;2023-04-16T01:08:59;32.58;;;12.85;;
56239;SDS011;42154;51.992;5.896;2023-04-16T01:11:25;23.70;;;11.20;;
56239;SDS011;42154;51.992;5.896;2023-04-16T01:13:50;20.65;;;10.88;;
56239;SDS011;42154;51.992;5.896;2023-04-16T01:16:17;25.70;;;11.43;;
56239;SDS011;42154;51.992;5.896;2023-04-16T01:18:43;29.48;;;12.63;;
56239;SDS011;42154;51.992;5.896;2023-04-16T01:21:08;31.75;;;12.77;;
56239;SDS011;42154;51.992;5.896;2023-04-16T01:23:34;27.95;;;11.68;;
56239;SDS011;42154;51.992;5.896;2023-04-16T01:26:00;26.40;;;11.60;;
56239;SDS011;42154;51.992;5.896;2023-04-16T01:28:26;39.25;;;14.30;;
56239;SDS011;42154;51.992;5.896;2023-04-16T01:30:52;34.50;;;13.73;;
56239;SDS011;42154;51.992;5.896;2023-04-16T01:33:34;27.30;;;11.95;;
56239;SDS011;42154;51.992;5.896;2023-04-16T01:36:00;33.88;;;16.17;;
56239;SDS011;42154;51.992;5.896;2023-04-16T01:38:26;33.88;;;13.65;;
56239;SDS011;42154;51.992;5.896;2023-04-16T01:40:55;33.20;;;14.90;;
56239;SDS011;42154;51.992;5.896;2023-04-16T01:43:24;30.27;;;13.43;;
56239;SDS011;42154;51.992;5.896;2023-04-16T01:45:50;43.08;;;16.92;;
56239;SDS011;42154;51.992;5.896;2023-04-16T01:48:21;38.63;;;16.75;;
56239;SDS011;42154;51.992;5.896;2023-04-16T01:50:47;45.10;;;16.33;;
56239;SDS011;42154;51.992;5.896;2023-04-16T01:53:13;31.40;;;13.70;;
56239;SDS011;42154;51.992;5.896;2023-04-16T01:55:38;34.30;;;15.45;;
56239;SDS011;42154;51.992;5.896;2023-04-16T01:58:04;45.58;;;17.13;;
56239;SDS011;42154;51.992;5.896;2023-04-16T02:00:33;33.80;;;13.82;;
56239;SDS011;42154;51.992;5.896;2023-04-16T02:02:58;42.95;;;16.02;;
56239;SDS011;42154;51.992;5.896;2023-04-16T02:05:26;46.83;;;18.13;;
56239;SDS011;42154;51.992;5.896;2023-04-16T02:07:52;34.28;;;15.10;;
56239;SDS011;42154;51.992;5.896;2023-04-16T02:10:18;41.50;;;18.13;;
56239;SDS011;42154;51.992;5.896;2023-04-16T02:12:44;37.95;;;15.18;;
56239;SDS011;42154;51.992;5.896;2023-04-16T02:15:12;33.45;;;15.55;;
56239;SDS011;42154;51.992;5.896;2023-04-16T02:17:38;32.88;;;16.05;;
56239;SDS011;42154;51.992;5.896;2023-04-16T02:20:08;40.78;;;19.30;;
56239;SDS011;42154;51.992;5.896;2023-04-16T02:22:40;40.95;;;19.08;;
56239;SDS011;42154;51.992;5.896;2023-04-16T02:25:08;49.00;;;19.88;;
56239;SDS011;42154;51.992;5.896;2023-04-16T02:27:34;37.38;;;18.23;;
56239;SDS011;42154;51.992;5.896;2023-04-16T02:30:14;41.93;;;19.10;;
56239;SDS011;42154;51.992;5.896;2023-04-16T02:32:42;34.30;;;16.98;;
56239;SDS011;42154;51.992;5.896;2023-04-16T02:35:08;40.10;;;17.58;;
56239;SDS011;42154;51.992;5.896;2023-04-16T02:37:34;45.35;;;19.77;;
56239;SDS011;42154;51.992;5.896;2023-04-16T02:39:59;37.03;;;17.83;;
56239;SDS011;42154;51.992;5.896;2023-04-16T02:42:25;38.55;;;16.13;;
56239;SDS011;42154;51.992;5.896;2023-04-16T02:44:51;47.22;;;20.65;;
56239;SDS011;42154;51.992;5.896;2023-04-16T02:47:17;42.05;;;19.23;;
56239;SDS011;42154;51.992;5.896;2023-04-16T02:49:42;41.97;;;20.13;;
56239;SDS011;42154;51.992;5.896;2023-04-16T02:52:08;39.42;;;18.42;;
56239;SDS011;42154;51.992;5.896;2023-04-16T02:54:34;45.75;;;21.42;;
56239;SDS011;42154;51.992;5.896;2023-04-16T02:57:00;47.30;;;19.45;;
56239;SDS011;42154;51.992;5.896;2023-04-16T02:59:26;45.78;;;19.42;;
56239;SDS011;42154;51.992;5.896;2023-04-16T03:01:52;41.72;;;19.60;;
56239;SDS011;42154;51.992;5.896;2023-04-16T03:04:18;39.17;;;18.52;;
56239;SDS011;42154;51.992;5.896;2023-04-16T03:06:44;49.88;;;22.08;;
56239;SDS011;42154;51.992;5.896;2023-04-16T03:09:10;37.97;;;17.23;;
56239;SDS011;42154;51.992;5.896;2023-04-16T03:11:36;40.47;;;19.52;;
56239;SDS011;42154;51.992;5.896;2023-04-16T03:14:01;43.22;;;18.55;;
56239;SDS011;42154;51.992;5.896;2023-04-16T03:16:27;40.72;;;20.75;;
56239;SDS011;42154;51.992;5.896;2023-04-16T03:18:53;40.13;;;20.52;;
56239;SDS011;42154;51.992;5.896;2023-04-16T03:21:19;38.38;;;19.33;;
56239;SDS011;42154;51.992;5.896;2023-04-16T03:23:44;42.65;;;19.95;;
56239;SDS011;42154;51.992;5.896;2023-04-16T03:26:10;37.63;;;19.00;;
56239;SDS011;42154;51.992;5.896;2023-04-16T03:28:36;38.08;;;18.50;;
56239;SDS011;42154;51.992;5.896;2023-04-16T03:31:02;40.63;;;19.35;;
56239;SDS011;42154;51.992;5.896;2023-04-16T03:33:28;42.22;;;19.27;;
56239;SDS011;42154;51.992;5.896;2023-04-16T03:35:54;40.03;;;19.20;;
56239;SDS011;42154;51.992;5.896;2023-04-16T03:38:22;43.40;;;21.35;;
56239;SDS011;42154;51.992;5.896;2023-04-16T03:40:49;38.13;;;18.58;;
56239;SDS011;42154;51.992;5.896;2023-04-16T03:43:16;41.72;;;19.90;;
56239;SDS011;42154;51.992;5.896;2023-04-16T03:45:43;57.95;;;25.08;;
56239;SDS011;42154;51.992;5.896;2023-04-16T03:48:09;46.65;;;21.20;;
56239;SDS011;42154;51.992;5.896;2023-04-16T03:50:35;41.03;;;20.23;;
56239;SDS011;42154;51.992;5.896;2023-04-16T03:53:02;40.10;;;18.98;;
56239;SDS011;42154;51.992;5.896;2023-04-16T03:55:28;38.25;;;18.67;;
56239;SDS011;42154;51.992;5.896;2023-04-16T03:57:53;40.83;;;19.88;;
56239;SDS011;42154;51.992;5.896;2023-04-16T04:00:20;44.85;;;21.45;;
56239;SDS011;42154;51.992;5.896;2023-04-16T04:02:58;44.67;;;21.58;;
56239;SDS011;42154;51.992;5.896;2023-04-16T04:05:23;41.95;;;20.20;;
56239;SDS011;42154;51.992;5.896;2023-04-16T04:07:50;41.85;;;19.98;;
56239;SDS011;42154;51.992;5.896;2023-04-16T04:10:16;41.88;;;19.38;;
56239;SDS011;42154;51.992;5.896;2023-04-16T04:12:42;45.47;;;21.30;;
56239;SDS011;42154;51.992;5.896;2023-04-16T04:15:08;42.83;;;20.85;;
56239;SDS011;42154;51.992;5.896;2023-04-16T04:17:34;40.17;;;20.77;;
56239;SDS011;42154;51.992;5.896;2023-04-16T04:20:00;50.10;;;23.88;;
56239;SDS011;42154;51.992;5.896;2023-04-16T04:22:27;49.22;;;22.90;;
56239;SDS011;42154;51.992;5.896;2023-04-16T04:24:53;52.95;;;25.02;;
56239;SDS011;42154;51.992;5.896;2023-04-16T04:27:19;49.92;;;22.60;;
56239;SDS011;42154;51.992;5.896;2023-04-16T04:29:45;53.33;;;25.20;;
56239;SDS011;42154;51.992;5.896;2023-04-16T04:32:10;55.63;;;24.60;;
56239;SDS011;42154;51.992;5.896;2023-04-16T04:34:36;53.08;;;23.67;;
56239;SDS011;42154;51.992;5.896;2023-04-16T04:37:04;49.58;;;22.13;;
56239;SDS011;42154;51.992;5.896;2023-04-16T04:39:29;47.80;;;21.63;;
56239;SDS011;42154;51.992;5.896;2023-04-16T04:41:56;38.33;;;20.13;;
56239;SDS011;42154;51.992;5.896;2023-04-16T04:44:21;41.90;;;20.02;;
56239;SDS011;42154;51.992;5.896;2023-04-16T04:46:47;48.42;;;23.40;;
56239;SDS011;42154;51.992;5.896;2023-04-16T04:49:13;45.45;;;20.98;;
56239;SDS011;42154;51.992;5.896;2023-04-16T04:51:39;49.50;;;23.80;;
56239;SDS011;42154;51.992;5.896;2023-04-16T04:54:04;51.80;;;23.85;;
56239;SDS011;42154;51.992;5.896;2023-04-16T04:56:30;45.10;;;20.60;;
56239;SDS011;42154;51.992;5.896;2023-04-16T04:58:56;43.85;;;21.33;;
56239;SDS011;42154;51.992;5.896;2023-04-16T05:01:22;47.35;;;23.88;;
56239;SDS011;42154;51.992;5.896;2023-04-16T05:03:48;47.08;;;22.48;;
56239;SDS011;42154;51.992;5.896;2023-04-16T05:06:13;46.03;;;23.23;;
56239;SDS011;42154;51.992;5.896;2023-04-16T05:08:40;53.85;;;26.27;;
56239;SDS011;42154;51.992;5.896;2023-04-16T05:11:05;49.70;;;24.80;;
56239;SDS011;42154;51.992;5.896;2023-04-16T05:13:31;44.90;;;21.98;;
56239;SDS011;42154;51.992;5.896;2023-04-16T05:15:57;50.22;;;25.40;;
56239;SDS011;42154;51.992;5.896;2023-04-16T05:18:23;51.83;;;24.52;;
56239;SDS011;42154;51.992;5.896;2023-04-16T05:20:49;51.60;;;24.45;;
56239;SDS011;42154;51.992;5.896;2023-04-16T05:23:15;50.08;;;23.52;;
56239;SDS011;42154;51.992;5.896;2023-04-16T05:25:40;57.55;;;25.77;;
56239;SDS011;42154;51.992;5.896;2023-04-16T05:28:06;47.22;;;22.77;;
56239;SDS011;42154;51.992;5.896;2023-04-16T05:30:32;52.25;;;26.35;;
56239;SDS011;42154;51.992;5.896;2023-04-16T05:32:58;52.15;;;25.05;;
56239;SDS011;42154;51.992;5.896;2023-04-16T05:35:23;51.65;;;23.25;;
56239;SDS011;42154;51.992;5.896;2023-04-16T05:37:49;47.28;;;22.95;;
56239;SDS011;42154;51.992;5.896;2023-04-16T05:40:15;44.25;;;23.35;;
56239;SDS011;42154;51.992;5.896;2023-04-16T05:42:41;48.35;;;25.25;;
56239;SDS011;42154;51.992;5.896;2023-04-16T05:45:06;49.28;;;26.08;;
56239;SDS011;42154;51.992;5.896;2023-04-16T05:47:33;43.88;;;22.60;;
56239;SDS011;42154;51.992;5.896;2023-04-16T05:49:58;57.45;;;25.83;;
56239;SDS011;42154;51.992;5.896;2023-04-16T05:52:24;38.85;;;22.33;;
56239;SDS011;42154;51.992;5.896;2023-04-16T05:54:50;48.15;;;25.92;;
56239;SDS011;42154;51.992;5.896;2023-04-16T05:57:15;51.33;;;23.80;;
56239;SDS011;42154;51.992;5.896;2023-04-16T05:59:41;48.22;;;23.65;;
56239;SDS011;42154;51.992;5.896;2023-04-16T06:02:07;34.90;;;19.65;;
56239;SDS011;42154;51.992;5.896;2023-04-16T06:04:32;42.22;;;23.73;;
56239;SDS011;42154;51.992;5.896;2023-04-16T06:06:59;35.83;;;20.80;;
56239;SDS011;42154;51.992;5.896;2023-04-16T06:09:25;34.47;;;18.77;;
56239;SDS011;42154;51.992;5.896;2023-04-16T06:11:51;44.10;;;23.40;;
56239;SDS011;42154;51.992;5.896;2023-04-16T06:14:17;40.30;;;20.42;;
56239;SDS011;42154;51.992;5.896;2023-04-16T06:16:43;39.75;;;21.33;;
56239;SDS011;42154;51.992;5.896;2023-04-16T06:19:08;37.40;;;19.20;;
56239;SDS011;42154;51.992;5.896;2023-04-16T06:21:34;36.67;;;17.85;;
56239;SDS011;42154;51.992;5.896;2023-04-16T06:24:01;48.83;;;24.98;;
56239;SDS011;42154;51.992;5.896;2023-04-16T06:26:27;39.90;;;21.15;;
56239;SDS011;42154;51.992;5.896;2023-04-16T06:28:53;37.70;;;19.38;;
56239;SDS011;42154;51.992;5.896;2023-04-16T06:31:19;38.35;;;20.90;;
56239;SDS011;42154;51.992;5.896;2023-04-16T06:33:44;41.25;;;22.02;;
56239;SDS011;42154;51.992;5.896;2023-04-16T06:36:10;40.05;;;21.08;;
56239;SDS011;42154;51.992;5.896;2023-04-16T06:38:36;36.95;;;19.02;;
56239;SDS011;42154;51.992;5.896;2023-04-16T06:41:02;41.58;;;21.88;;
56239;SDS011;42154;51.992;5.896;2023-04-16T06:43:28;37.13;;;21.08;;
56239;SDS011;42154;51.992;5.896;2023-04-16T06:45:54;38.95;;;21.05;;
56239;SDS011;42154;51.992;5.896;2023-04-16T06:48:20;35.05;;;17.90;;
56239;SDS011;42154;51.992;5.896;2023-04-16T06:50:46;37.80;;;19.63;;
56239;SDS011;42154;51.992;5.896;2023-04-16T06:53:11;34.85;;;19.73;;
56239;SDS011;42154;51.992;5.896;2023-04-16T06:55:37;31.85;;;18.10;;
56239;SDS011;42154;51.992;5.896;2023-04-16T06:58:03;35.20;;;19.77;;
56239;SDS011;42154;51.992;5.896;2023-04-16T07:00:28;30.67;;;18.02;;
56239;SDS011;42154;51.992;5.896;2023-04-16T07:02:54;32.63;;;18.77;;
56239;SDS011;42154;51.992;5.896;2023-04-16T07:05:20;30.45;;;19.38;;
56239;SDS011;42154;51.992;5.896;2023-04-16T07:07:46;34.03;;;19.20;;
56239;SDS011;42154;51.992;5.896;2023-04-16T07:10:11;33.83;;;18.27;;
56239;SDS011;42154;51.992;5.896;2023-04-16T07:12:37;33.45;;;19.10;;
56239;SDS011;42154;51.992;5.896;2023-04-16T07:15:03;31.30;;;19.42;;
56239;SDS011;42154;51.992;5.896;2023-04-16T07:17:30;30.10;;;19.92;;
56239;SDS011;42154;51.992;5.896;2023-04-16T07:19:55;33.53;;;19.83;;
56239;SDS011;42154;51.992;5.896;2023-04-16T07:22:21;30.58;;;18.27;;
56239;SDS011;42154;51.992;5.896;2023-04-16T07:24:47;31.85;;;17.70;;
56239;SDS011;42154;51.992;5.896;2023-04-16T07:27:12;34.03;;;20.70;;
56239;SDS011;42154;51.992;5.896;2023-04-16T07:29:38;28.70;;;17.50;;
56239;SDS011;42154;51.992;5.896;2023-04-16T07:32:04;32.22;;;19.27;;
56239;SDS011;42154;51.992;5.896;2023-04-16T07:34:30;30.38;;;19.02;;
56239;SDS011;42154;51.992;5.896;2023-04-16T07:36:55;34.63;;;19.70;;
56239;SDS011;42154;51.992;5.896;2023-04-16T07:39:21;28.45;;;18.02;;
56239;SDS011;42154;51.992;5.896;2023-04-16T07:41:47;31.00;;;17.80;;
56239;SDS011;42154;51.992;5.896;2023-04-16T07:44:13;26.35;;;15.20;;
56239;SDS011;42154;51.992;5.896;2023-04-16T07:46:38;30.50;;;17.85;;
56239;SDS011;42154;51.992;5.896;2023-04-16T07:49:04;28.80;;;18.35;;
56239;SDS011;42154;51.992;5.896;2023-04-16T07:51:30;34.75;;;18.92;;
56239;SDS011;42154;51.992;5.896;2023-04-16T07:53:56;33.78;;;19.23;;
56239;SDS011;42154;51.992;5.896;2023-04-16T07:56:21;30.88;;;17.05;;
56239;SDS011;42154;51.992;5.896;2023-04-16T07:58:47;30.90;;;16.80;;
56239;SDS011;42154;51.992;5.896;2023-04-16T08:01:13;30.42;;;17.05;;
56239;SDS011;42154;51.992;5.896;2023-04-16T08:03:39;26.70;;;17.52;;
56239;SDS011;42154;51.992;5.896;2023-04-16T08:06:05;33.30;;;19.80;;
56239;SDS011;42154;51.992;5.896;2023-04-16T08:08:30;34.05;;;20.33;;
56239;SDS011;42154;51.992;5.896;2023-04-16T08:10:56;40.90;;;22.88;;
56239;SDS011;42154;51.992;5.896;2023-04-16T08:13:23;34.30;;;20.25;;
56239;SDS011;42154;51.992;5.896;2023-04-16T08:15:49;30.63;;;17.15;;
56239;SDS011;42154;51.992;5.896;2023-04-16T08:18:14;32.90;;;19.92;;
56239;SDS011;42154;51.992;5.896;2023-04-16T08:20:41;35.05;;;20.45;;
56239;SDS011;42154;51.992;5.896;2023-04-16T08:23:06;34.58;;;20.20;;
56239;SDS011;42154;51.992;5.896;2023-04-16T08:25:32;37.33;;;20.30;;
56239;SDS011;42154;51.992;5.896;2023-04-16T08:27:58;32.88;;;18.60;;
56239;SDS011;42154;51.992;5.896;2023-04-16T08:30:24;38.85;;;21.25;;
56239;SDS011;42154;51.992;5.896;2023-04-16T08:32:49;33.47;;;20.73;;
56239;SDS011;42154;51.992;5.896;2023-04-16T08:35:15;34.95;;;20.42;;
56239;SDS011;42154;51.992;5.896;2023-04-16T08:37:41;33.80;;;18.92;;
56239;SDS011;42154;51.992;5.896;2023-04-16T08:40:07;41.17;;;22.90;;
56239;SDS011;42154;51.992;5.896;2023-04-16T08:42:36;35.38;;;19.38;;
56239;SDS011;42154;51.992;5.896;2023-04-16T08:47:39;37.10;;;20.58;;
56239;SDS011;42154;51.992;5.896;2023-04-16T08:50:09;36.63;;;21.75;;
56239;SDS011;42154;51.992;5.896;2023-04-16T08:52:42;39.20;;;19.55;;
56239;SDS011;42154;51.992;5.896;2023-04-16T08:58:06;49.25;;;25.73;;
56239;SDS011;42154;51.992;5.896;2023-04-16T09:00:37;41.33;;;21.65;;
56239;SDS011;42154;51.992;5.896;2023-04-16T09:03:05;42.63;;;22.75;;
56239;SDS011;42154;51.992;5.896;2023-04-16T09:05:32;42.38;;;24.80;;
56239;SDS011;42154;51.992;5.896;2023-04-16T09:07:58;44.72;;;25.10;;
56239;SDS011;42154;51.992;5.896;2023-04-16T09:10:25;42.20;;;22.50;;
56239;SDS011;42154;51.992;5.896;2023-04-16T09:12:54;39.90;;;21.90;;
56239;SDS011;42154;51.992;5.896;2023-04-16T09:15:20;44.33;;;23.20;;
56239;SDS011;42154;51.992;5.896;2023-04-16T09:17:46;42.17;;;23.52;;
56239;SDS011;42154;51.992;5.896;2023-04-16T09:20:12;46.15;;;23.60;;
56239;SDS011;42154;51.992;5.896;2023-04-16T09:22:38;44.25;;;23.52;;
56239;SDS011;42154;51.992;5.896;2023-04-16T09:25:05;45.40;;;22.52;;
56239;SDS011;42154;51.992;5.896;2023-04-16T09:27:31;42.25;;;23.27;;
56239;SDS011;42154;51.992;5.896;2023-04-16T09:29:57;47.35;;;26.60;;
56239;SDS011;42154;51.992;5.896;2023-04-16T09:32:26;44.25;;;23.95;;
56239;SDS011;42154;51.992;5.896;2023-04-16T09:34:59;31.60;;;17.63;;
56239;SDS011;42154;51.992;5.896;2023-04-16T09:37:27;35.33;;;21.40;;
56239;SDS011;42154;51.992;5.896;2023-04-16T09:39:55;43.47;;;23.33;;
56239;SDS011;42154;51.992;5.896;2023-04-16T09:42:26;44.15;;;24.25;;
56239;SDS011;42154;51.992;5.896;2023-04-16T09:44:53;40.78;;;21.27;;
56239;SDS011;42154;51.992;5.896;2023-04-16T09:47:20;35.15;;;19.73;;
56239;SDS011;42154;51.992;5.896;2023-04-16T09:49:46;38.22;;;21.52;;
56239;SDS011;42154;51.992;5.896;2023-04-16T09:52:16;37.42;;;20.83;;
56239;SDS011;42154;51.992;5.896;2023-04-16T09:54:50;37.67;;;21.50;;
56239;SDS011;42154;51.992;5.896;2023-04-16T09:57:17;34.45;;;20.88;;
56239;SDS011;42154;51.992;5.896;2023-04-16T09:59:45;37.47;;;20.52;;
56239;SDS011;42154;51.992;5.896;2023-04-16T10:02:11;31.85;;;18.65;;
56239;SDS011;42154;51.992;5.896;2023-04-16T10:04:47;38.88;;;22.00;;
56239;SDS011;42154;51.992;5.896;2023-04-16T10:07:13;34.88;;;21.10;;
56239;SDS011;42154;51.992;5.896;2023-04-16T10:09:39;38.47;;;21.25;;
56239;SDS011;42154;51.992;5.896;2023-04-16T10:12:06;40.00;;;20.77;;
56239;SDS011;42154;51.992;5.896;2023-04-16T10:14:32;36.88;;;20.42;;
56239;SDS011;42154;51.992;5.896;2023-04-16T10:16:58;35.00;;;20.92;;
56239;SDS011;42154;51.992;5.896;2023-04-16T10:19:25;34.28;;;19.70;;
56239;SDS011;42154;51.992;5.896;2023-04-16T10:21:52;36.40;;;20.10;;
56239;SDS011;42154;51.992;5.896;2023-04-16T10:24:19;33.90;;;19.42;;
56239;SDS011;42154;51.992;5.896;2023-04-16T10:26:46;41.50;;;23.60;;
56239;SDS011;42154;51.992;5.896;2023-04-16T10:29:14;38.33;;;21.05;;
56239;SDS011;42154;51.992;5.896;2023-04-16T10:31:40;31.50;;;18.60;;
56239;SDS011;42154;51.992;5.896;2023-04-16T10:34:07;36.08;;;18.92;;
56239;SDS011;42154;51.992;5.896;2023-04-16T10:36:37;33.42;;;19.35;;
56239;SDS011;42154;51.992;5.896;2023-04-16T10:39:05;32.95;;;20.05;;
56239;SDS011;42154;51.992;5.896;2023-04-16T10:41:38;38.63;;;19.75;;
56239;SDS011;42154;51.992;5.896;2023-04-16T10:46:35;28.85;;;17.75;;
56239;SDS011;42154;51.992;5.896;2023-04-16T10:49:24;31.23;;;17.73;;
56239;SDS011;42154;51.992;5.896;2023-04-16T10:52:02;31.92;;;17.95;;
56239;SDS011;42154;51.992;5.896;2023-04-16T10:54:36;35.75;;;20.60;;
56239;SDS011;42154;51.992;5.896;2023-04-16T10:57:05;30.58;;;18.65;;
56239;SDS011;42154;51.992;5.896;2023-04-16T10:59:33;34.50;;;19.85;;
56239;SDS011;42154;51.992;5.896;2023-04-16T11:02:05;30.88;;;17.33;;
56239;SDS011;42154;51.992;5.896;2023-04-16T11:04:33;34.22;;;17.70;;
56239;SDS011;42154;51.992;5.896;2023-04-16T11:12:39;30.67;;;18.08;;
56239;SDS011;42154;51.992;5.896;2023-04-16T11:15:07;33.60;;;17.35;;
56239;SDS011;42154;51.992;5.896;2023-04-16T11:20:19;29.63;;;16.10;;
56239;SDS011;42154;51.992;5.896;2023-04-16T11:22:47;28.58;;;15.35;;
56239;SDS011;42154;51.992;5.896;2023-04-16T11:25:27;27.08;;;16.95;;
56239;SDS011;42154;51.992;5.896;2023-04-16T11:27:54;30.00;;;15.52;;
56239;SDS011;42154;51.992;5.896;2023-04-16T11:30:35;27.77;;;16.50;;
56239;SDS011;42154;51.992;5.896;2023-04-16T11:33:07;23.50;;;15.50;;
56239;SDS011;42154;51.992;5.896;2023-04-16T11:35:35;32.72;;;17.58;;
56239;SDS011;42154;51.992;5.896;2023-04-16T11:38:05;24.13;;;14.80;;
56239;SDS011;42154;51.992;5.896;2023-04-16T11:40:31;25.35;;;16.23;;
56239;SDS011;42154;51.992;5.896;2023-04-16T11:43:11;27.88;;;15.40;;
56239;SDS011;42154;51.992;5.896;2023-04-16T11:45:40;28.52;;;16.02;;
56239;SDS011;42154;51.992;5.896;2023-04-16T11:48:22;25.92;;;16.30;;
56239;SDS011;42154;51.992;5.896;2023-04-16T11:50:57;24.92;;;14.95;;
56239;SDS011;42154;51.992;5.896;2023-04-16T11:53:23;27.20;;;15.38;;
56239;SDS011;42154;51.992;5.896;2023-04-16T11:55:49;30.77;;;15.52;;
56239;SDS011;42154;51.992;5.896;2023-04-16T11:58:15;31.42;;;16.40;;
56239;SDS011;42154;51.992;5.896;2023-04-16T12:00:41;27.67;;;14.05;;
56239;SDS011;42154;51.992;5.896;2023-04-16T12:03:07;30.33;;;16.90;;
56239;SDS011;42154;51.992;5.896;2023-04-16T12:05:36;26.60;;;13.38;;
56239;SDS011;42154;51.992;5.896;2023-04-16T12:08:04;27.80;;;16.42;;
56239;SDS011;42154;51.992;5.896;2023-04-16T12:10:36;27.98;;;16.60;;
56239;SDS011;42154;51.992;5.896;2023-04-16T12:13:16;30.90;;;15.05;;
56239;SDS011;42154;51.992;5.896;2023-04-16T12:15:49;30.38;;;16.38;;
56239;SDS011;42154;51.992;5.896;2023-04-16T12:18:16;31.65;;;17.00;;
56239;SDS011;42154;51.992;5.896;2023-04-16T12:20:44;32.38;;;16.90;;
56239;SDS011;42154;51.992;5.896;2023-04-16T12:23:32;24.52;;;14.85;;
56239;SDS011;42154;51.992;5.896;2023-04-16T12:25:57;32.25;;;16.27;;
56239;SDS011;42154;51.992;5.896;2023-04-16T12:28:35;29.75;;;15.50;;
56239;SDS011;42154;51.992;5.896;2023-04-16T12:31:02;31.48;;;15.75;;
56239;SDS011;42154;51.992;5.896;2023-04-16T12:33:29;23.23;;;12.55;;
56239;SDS011;42154;51.992;5.896;2023-04-16T12:35:55;24.23;;;14.15;;
56239;SDS011;42154;51.992;5.896;2023-04-16T12:38:21;27.50;;;14.73;;
56239;SDS011;42154;51.992;5.896;2023-04-16T12:40:47;23.05;;;13.52;;
56239;SDS011;42154;51.992;5.896;2023-04-16T12:43:13;26.55;;;14.63;;
56239;SDS011;42154;51.992;5.896;2023-04-16T12:45:39;25.17;;;14.00;;
56239;SDS011;42154;51.992;5.896;2023-04-16T12:48:05;26.77;;;14.95;;
56239;SDS011;42154;51.992;5.896;2023-04-16T12:50:31;26.85;;;14.95;;
56239;SDS011;42154;51.992;5.896;2023-04-16T12:52:57;22.08;;;14.07;;
56239;SDS011;42154;51.992;5.896;2023-04-16T12:55:23;23.92;;;13.80;;
56239;SDS011;42154;51.992;5.896;2023-04-16T12:57:49;33.05;;;15.98;;
56239;SDS011;42154;51.992;5.896;2023-04-16T13:00:17;28.45;;;15.55;;
56239;SDS011;42154;51.992;5.896;2023-04-16T13:02:43;27.25;;;13.90;;
56239;SDS011;42154;51.992;5.896;2023-04-16T13:05:10;26.65;;;16.88;;
56239;SDS011;42154;51.992;5.896;2023-04-16T13:07:37;25.08;;;14.88;;
56239;SDS011;42154;51.992;5.896;2023-04-16T13:10:04;27.42;;;15.52;;
56239;SDS011;42154;51.992;5.896;2023-04-16T13:12:30;25.88;;;15.73;;
56239;SDS011;42154;51.992;5.896;2023-04-16T13:14:56;25.75;;;15.05;;
56239;SDS011;42154;51.992;5.896;2023-04-16T13:17:22;26.45;;;14.93;;
56239;SDS011;42154;51.992;5.896;2023-04-16T13:19:48;22.17;;;13.18;;
56239;SDS011;42154;51.992;5.896;2023-04-16T13:22:14;26.85;;;14.02;;
56239;SDS011;42154;51.992;5.896;2023-04-16T13:24:39;26.58;;;14.75;;
56239;SDS011;42154;51.992;5.896;2023-04-16T13:27:05;26.17;;;16.48;;
56239;SDS011;42154;51.992;5.896;2023-04-16T13:29:32;25.00;;;14.75;;
56239;SDS011;42154;51.992;5.896;2023-04-16T13:32:00;23.17;;;12.68;;
56239;SDS011;42154;51.992;5.896;2023-04-16T13:34:26;25.42;;;15.68;;
56239;SDS011;42154;51.992;5.896;2023-04-16T13:36:52;22.88;;;13.73;;
56239;SDS011;42154;51.992;5.896;2023-04-16T13:39:18;21.45;;;12.48;;
56239;SDS011;42154;51.992;5.896;2023-04-16T13:41:43;27.52;;;16.63;;
56239;SDS011;42154;51.992;5.896;2023-04-16T13:44:09;23.38;;;13.32;;
56239;SDS011;42154;51.992;5.896;2023-04-16T13:46:35;24.65;;;13.93;;
56239;SDS011;42154;51.992;5.896;2023-04-16T13:49:01;25.30;;;12.90;;
56239;SDS011;42154;51.992;5.896;2023-04-16T13:51:26;21.08;;;12.77;;
56239;SDS011;42154;51.992;5.896;2023-04-16T13:53:53;23.00;;;13.43;;
56239;SDS011;42154;51.992;5.896;2023-04-16T13:56:20;21.08;;;12.68;;
56239;SDS011;42154;51.992;5.896;2023-04-16T13:58:45;19.58;;;12.85;;
56239;SDS011;42154;51.992;5.896;2023-04-16T14:01:11;22.90;;;12.73;;
56239;SDS011;42154;51.992;5.896;2023-04-16T14:03:37;22.92;;;13.63;;
56239;SDS011;42154;51.992;5.896;2023-04-16T14:06:04;22.02;;;15.23;;
56239;SDS011;42154;51.992;5.896;2023-04-16T14:08:30;24.67;;;14.00;;
56239;SDS011;42154;51.992;5.896;2023-04-16T14:10:56;24.85;;;14.45;;
56239;SDS011;42154;51.992;5.896;2023-04-16T14:13:22;25.98;;;15.57;;
56239;SDS011;42154;51.992;5.896;2023-04-16T14:15:49;25.23;;;15.13;;
56239;SDS011;42154;51.992;5.896;2023-04-16T14:18:14;27.77;;;13.02;;
56239;SDS011;42154;51.992;5.896;2023-04-16T14:20:40;24.73;;;14.60;;
56239;SDS011;42154;51.992;5.896;2023-04-16T14:23:06;23.65;;;13.93;;
56239;SDS011;42154;51.992;5.896;2023-04-16T14:25:32;29.55;;;16.27;;
56239;SDS011;42154;51.992;5.896;2023-04-16T14:28:01;31.23;;;17.13;;
56239;SDS011;42154;51.992;5.896;2023-04-16T14:30:26;23.25;;;13.35;;
56239;SDS011;42154;51.992;5.896;2023-04-16T14:32:52;25.35;;;14.55;;
56239;SDS011;42154;51.992;5.896;2023-04-16T14:35:18;26.40;;;14.35;;
56239;SDS011;42154;51.992;5.896;2023-04-16T14:37:44;24.25;;;13.65;;